Latest Coastal Weather Observations for Cape Grim

IDT60701

Issued at 2:52 am EST Friday 28 April 2017 (issued every 10 minutes, with the page automatically refreshed every 10 minutes)

About coastal observations | Map of coastal stations | Coastal observations for TAS | Marine services | Other Formats
Station Details ID: 091331 Name: CAPE GRIM Lat: -40.68 Lon: 144.69 Height: 86.0 m
Data from the previous 72 hours. | See also: Recent months at Cape Grim
Date/Time
EST
Temp
°C
Wind Pressure Rain since
9am
mm
Weather Cloud Vis
km
Sea
Height
m
Swell
Dir  Spd
kts
Gust
kts
hPa Trend Height
m
Period
s
Dir
28/02:40am 14.3 W 15 25 1017.9 - 0.0 - Partly cloudy - - - - -
28/02:30am 14.2 W 12 21 1018.0 - 0.0 - Partly cloudy - - - - -
28/02:00am 14.4 W 17 28 1017.9 - 0.0 - Partly cloudy - - - - -
28/01:55am 14.5 W 18 28 1017.9 - 0.0 - Partly cloudy - - - - -
28/01:42am 14.3 W 19 26 1017.9 - 0.0 - Partly cloudy - - - - -
28/01:30am 14.4 W 15 23 1017.9 - 0.0 - Partly cloudy - - - - -
28/01:06am 14.2 W 15 22 1018.3 - 0.0 - Partly cloudy - - - - -
28/01:00am 14.1 W 15 22 1018.3 - 0.0 - Partly cloudy - - - - -
28/12:57am 14.1 W 14 21 1018.3 - 0.0 - Partly cloudy - - - - -
28/12:30am 13.6 W 14 21 1018.4 - 0.0 - Partly cloudy - - - - -
28/12:15am 14.0 W 14 20 1018.5 - 0.0 - Partly cloudy - - - - -
28/12:00am 14.2 W 15 22 1018.5 - 0.0 - Cloudy - - - - -
 
Date/Time
EST
Temp
°C
Wind Pressure Rain since
9am
mm
Weather Cloud Vis
km
Sea
Height
m
Swell
Dir  Spd
kts
Gust
kts
hPa Trend Height
m
Period
s
Dir
27/11:30pm 14.3 W 14 19 1018.5 - 0.0 - Partly cloudy - - - - -
27/11:00pm 14.4 W 16 24 1018.9 - 0.0 - Partly cloudy - - - - -
27/10:30pm 14.2 W 16 24 1018.8 - 0.0 - Partly cloudy - - - - -
27/10:00pm 14.0 W 18 26 1018.8 - 0.0 - Partly cloudy - - - - -
27/09:30pm 14.3 W 18 24 1018.8 - 0.0 - Partly cloudy - - - - -
27/09:00pm 14.2 W 16 23 1019.0 - 0.0 - Cloudy - - - - -
27/08:30pm 14.1 W 15 23 1018.9 - 0.0 - Partly cloudy - - - - -
27/08:00pm 14.0 W 15 24 1019.0 - 0.0 - Partly cloudy - - - - -
27/07:30pm 13.7 W 16 22 1019.0 - 0.0 - Partly cloudy - - - - -
27/07:00pm 13.4 W 16 24 1019.1 - 0.0 - Partly cloudy - - - - -
27/06:33pm 13.7 W 17 28 1018.9 - 0.0 - Partly cloudy - - - - -
27/06:30pm 13.6 W 16 23 1018.9 - 0.0 - Partly cloudy - - - - -
27/06:00pm 12.7 W 17 24 1019.0 - 0.0 - Cloudy - - - - -
27/05:49pm 13.0 W 15 26 1019.1 - 0.0 - Partly cloudy - - - - -
27/05:30pm 12.5 W 16 23 1019.2 - 0.0 - Partly cloudy - - - - -
27/05:00pm 13.3 W 16 24 1019.4 - 0.0 - Partly cloudy - - - - -
27/04:30pm 13.5 W 14 22 1019.3 - 0.0 - Partly cloudy - - - - -
27/04:00pm 13.5 W 15 23 1019.3 - 0.0 - Partly cloudy - - - - -
27/03:30pm 13.7 W 15 26 1019.4 - 0.0 - Partly cloudy - - - - -
27/03:25pm 13.4 W 15 26 1019.3 - 0.0 - Partly cloudy - - - - -
27/03:00pm 13.3 W 15 21 1019.3 - 0.0 - Cloudy - - - - -
27/02:30pm 12.9 W 14 20 1019.3 - 0.0 - Partly cloudy - - - - -
27/02:00pm 12.9 W 14 22 1019.6 - 0.0 - Partly cloudy - - - - -
27/01:30pm 12.7 W 12 19 1020.0 - 0.0 - Partly cloudy - - - - -
27/01:00pm 12.8 WSW 11 20 1020.5 - 0.0 - Partly cloudy - - - - -
27/12:30pm 12.3 SW 15 21 1021.2 - 0.0 - Partly cloudy - - - - -
27/12:01pm 12.5 SW 15 25 1021.2 - 0.0 - Partly cloudy - - - - -
27/12:00pm 12.4 SW 16 25 1021.2 - 0.0 - Cloudy - - - - -
27/11:30am 12.7 WSW 12 19 1021.2 - 0.0 - Partly cloudy - - - - -
27/11:00am 12.0 SW 14 22 1021.5 - 0.0 - Partly cloudy - - - - -
27/10:30am 11.6 SW 15 21 1021.4 - 0.0 - Partly cloudy - - - - -
27/10:00am 11.5 SW 15 19 1021.4 - 0.0 - Partly cloudy - - - - -
27/09:30am 11.3 SW 15 20 1021.4 - 0.0 - - - - - - -
27/09:00am 10.9 SW 16 24 1021.2 - 4.6 - Mostly clear - - - - -
27/08:30am 10.5 SW 15 22 1021.1 - 4.6 - Partly cloudy - - - - -
27/08:20am 10.2 S 6 19 1021.1 - 4.6 - Partly cloudy - - - - -
27/08:00am 8.9 SSE 5 9 1021.1 - 4.6 - Partly cloudy - - - - -
27/07:30am 6.9 E 5 8 1020.8 - 4.6 - Partly cloudy - - - - -
27/07:00am 7.2 SE 6 8 1020.8 - 4.4 - Partly cloudy - - - - -
27/06:30am 6.7 ESE 5 7 1020.6 - 4.4 - Partly cloudy - - - - -
27/06:00am 6.7 SSE 5 6 1020.5 - 4.4 Recent precip. Cloudy - - - - -
27/05:30am 7.3 SSE 6 8 1020.4 - 4.4 - Partly cloudy - - - - -
27/05:00am 6.9 SSE 4 6 1020.1 - 4.2 - Partly cloudy - - - - -
27/04:30am 7.2 SSE 7 11 1020.0 - 4.0 - Partly cloudy - - - - -
27/04:00am 6.8 SE 7 11 1019.6 - 4.0 - Partly cloudy - - - - -
27/03:30am 7.0 SSE 8 10 1019.5 - 3.8 - Partly cloudy - - - - -
27/03:00am 6.8 SE 10 13 1019.6 - 3.8 - Mostly clear - - - - -
27/02:30am 6.5 SE 11 13 1019.8 - 3.8 - Partly cloudy - - - - -
27/02:00am 6.7 SE 12 15 1019.8 - 3.8 - Partly cloudy - - - - -
27/01:30am 6.8 SE 11 14 1019.7 - 3.8 - Partly cloudy - - - - -
27/01:00am 7.2 SSE 7 9 1019.5 - 3.8 - Partly cloudy - - - - -
27/12:30am 6.7 SSE 7 9 1019.4 - 3.8 - Partly cloudy - - - - -
27/12:00am 6.9 SSE 11 17 1019.4 - 3.8 - Mostly clear - - - - -
 
Date/Time
EST
Temp
°C
Wind Pressure Rain since
9am
mm
Weather Cloud Vis
km
Sea
Height
m
Swell
Dir  Spd
kts
Gust
kts
hPa Trend Height
m
Period
s
Dir
26/11:30pm 7.1 SSE 12 17 1019.3 - 3.8 - Partly cloudy - - - - -
26/11:00pm 6.3 SSE 8 11 1019.2 - 3.8 - - - - - - -
26/10:30pm 7.0 SSE 12 15 1019.0 - 3.8 - Partly cloudy - - - - -
26/10:00pm 7.1 SSE 11 14 1018.7 - 3.8 - Partly cloudy - - - - -
26/09:30pm 7.0 SSE 11 16 1018.4 - 3.8 - Partly cloudy - - - - -
26/09:00pm 8.0 S 14 20 1018.0 - 3.8 Recent precip. Partly cloudy - - - - -
26/08:30pm 7.9 SSW 15 20 1017.9 - 3.8 - Partly cloudy - - - - -
26/08:00pm 9.5 SSW 16 26 1017.2 - 3.6 - Partly cloudy - - - - -
26/07:33pm 9.5 S 19 31 1017.0 - 3.4 - Partly cloudy - - - - -
26/07:30pm 9.7 S 18 25 1016.8 - 3.4 - Partly cloudy - - - - -
26/07:09pm 8.6 S 15 25 1016.6 - 3.4 - Partly cloudy - - - - -
26/07:00pm 7.5 S 15 21 1016.5 - 3.4 - Partly cloudy - - - - -
26/06:30pm 7.6 S 21 36 1016.2 - 3.2 - Partly cloudy - - - - -
26/06:23pm 9.5 S 19 29 1015.7 - 2.8 - Partly cloudy - - - - -
26/06:20pm 9.4 S 20 28 1015.6 - 2.8 - Partly cloudy - - - - -
26/06:00pm 9.8 SSW 20 32 1015.3 - 2.8 Recent precip. Mostly cloudy - - - - -
26/05:34pm 7.8 SSE 15 25 1015.2 - 2.8 - Partly cloudy - - - - -
26/05:30pm 7.8 SSE 17 25 1015.2 - 2.8 - Partly cloudy - - - - -
26/05:18pm 9.2 SSW 24 34 1014.8 - 2.8 - Partly cloudy - - - - -
26/05:00pm 9.4 SSW 23 37 1014.5 - 2.6 - Partly cloudy - - - - -
26/04:30pm 10.7 SW 23 36 1013.6 - 2.6 - Partly cloudy - - - - -
26/04:23pm 10.3 SSW 23 33 1013.7 - 2.6 - Partly cloudy - - - - -
26/04:10pm 9.8 SSW 22 29 1013.5 - 2.6 - Partly cloudy - - - - -
26/04:00pm 10.9 SSW 25 37 1013.2 - 2.6 - Partly cloudy - - - - -
26/03:42pm 10.4 SW 26 40 1013.0 - 2.6 - Partly cloudy - - - - -
26/03:30pm 10.5 SSW 25 33 1012.8 - 2.6 - Partly cloudy - - - - -
26/03:00pm 8.8 SW 31 43 1012.6 - 2.6 Rain Cloudy - - - - -
26/02:58pm 8.9 SW 33 43 1012.4 - 2.6 - Partly cloudy - - - - -
26/02:46pm 9.7 SSW 24 40 1012.3 - 2.4 - Partly cloudy - - - - -
26/02:32pm 9.2 SSW 22 32 1012.4 - 2.4 - Partly cloudy - - - - -
26/02:30pm 9.1 SSW 24 32 1012.3 - 2.4 - Partly cloudy - - - - -
26/02:20pm 8.2 SSW 29 40 1012.1 - 2.4 - Partly cloudy - - - - -
26/02:01pm 10.5 SW 31 41 1011.9 - 2.2 - Partly cloudy - - - - -
26/02:00pm 10.6 SW 32 41 1011.8 - 2.2 - Partly cloudy - - - - -
26/01:30pm 10.7 SW 26 37 1011.6 - 2.2 - Partly cloudy - - - - -
26/01:00pm 10.6 SW 27 37 1011.4 - 2.2 - - - - - - -
26/12:30pm 10.6 SW 25 37 1011.2 - 2.2 - Partly cloudy - - - - -
26/12:24pm 10.8 SSW 20 31 1011.3 - 2.2 - Partly cloudy - - - - -
26/12:13pm 9.7 SSW 24 36 1011.4 - 2.2 - Partly cloudy - - - - -
26/12:00pm 9.4 SW 32 42 1011.2 - 2.2 Recent precip. Mostly clear - - - - -
26/11:51am 10.1 SW 31 42 1011.0 - 2.2 - Partly cloudy - - - - -
26/11:30am 8.6 SSW 23 34 1011.1 - 2.2 - Partly cloudy - - - - -
26/11:00am 8.9 SSW 30 40 1010.6 - 0.8 - Partly cloudy - - - - -
26/10:30am 8.5 SSW 26 41 1010.3 - 0.8 - Partly cloudy - - - - -
26/10:07am 9.8 SW 31 41 1010.1 - 0.0 - Partly cloudy - - - - -
26/10:00am 9.8 SW 28 41 1009.9 - 0.0 - Partly cloudy - - - - -
26/09:58am 9.7 SW 26 41 1010.0 - 0.0 - Partly cloudy - - - - -
26/09:36am 10.1 SSW 23 33 1009.9 - 0.0 - Partly cloudy - - - - -
26/09:30am 9.9 SSW 23 31 1009.9 - 0.0 - Partly cloudy - - - - -
26/09:00am 8.5 SSW 30 45 1009.3 - 10.2 Rain Partly cloudy - - - - -
26/08:30am 10.3 SSW 29 43 1009.0 - 10.0 - Partly cloudy - - - - -
26/08:05am 10.8 SSW 30 41 1008.0 - 10.0 - Partly cloudy - - - - -
26/08:00am 10.8 SSW 31 38 1007.9 - 10.0 - Partly cloudy - - - - -
26/07:30am 10.7 S 25 36 1007.2 - 10.0 - Partly cloudy - - - - -
26/07:00am 10.8 SSW 30 41 1006.7 - 10.0 - Partly cloudy - - - - -
26/06:30am 10.9 SSW 29 40 1005.8 - 10.0 - Partly cloudy - - - - -
26/06:00am 10.9 SSW 30 40 1005.0 - 10.0 - Cloudy - - - - -
26/05:30am 11.1 SW 31 46 1004.8 - 10.0 - Partly cloudy - - - - -
26/05:00am 11.1 SSW 29 42 1004.0 - 10.0 - Partly cloudy - - - - -
26/04:30am 10.7 SSW 28 38 1003.6 - 10.0 - Partly cloudy - - - - -
26/04:00am 10.3 SSW 29 40 1003.0 - 10.0 - Partly cloudy - - - - -
26/03:30am 11.2 SSW 28 39 1002.2 - 9.8 - Partly cloudy - - - - -
26/03:01am 10.7 SSW 27 37 1002.0 - 9.8 - Partly cloudy - - - - -
26/03:00am 10.5 SSW 28 37 1002.0 - 9.8 Recent precip. Cloudy - - - - -
26/02:30am 11.3 SSW 28 39 1001.9 - 9.6 - Partly cloudy - - - - -
26/02:05am 11.3 SSW 24 37 1001.5 - 9.6 - Partly cloudy - - - - -
26/02:00am 11.6 SSW 23 31 1001.5 - 9.4 - Partly cloudy - - - - -
26/01:31am 11.4 SSW 19 32 1001.2 - 9.4 - Partly cloudy - - - - -
26/01:30am 11.5 SSW 18 26 1001.2 - 9.4 - Partly cloudy - - - - -
26/01:20am 11.5 SSW 19 29 1001.2 - 9.4 - Partly cloudy - - - - -
26/01:00am 11.3 SSW 20 25 1001.1 - 9.2 - Partly cloudy - - - - -
26/12:32am 11.9 SSW 19 29 1000.8 - 8.2 - Partly cloudy - - - - -
26/12:30am 11.9 SSW 20 29 1000.7 - 8.2 - Partly cloudy - - - - -
26/12:00am 11.9 SSW 26 32 1000.5 - 8.2 - Mostly cloudy - - - - -
 
Date/Time
EST
Temp
°C
Wind Pressure Rain since
9am
mm
Weather Cloud Vis
km
Sea
Height
m
Swell
Dir  Spd
kts
Gust
kts
hPa Trend Height
m
Period
s
Dir
25/11:33pm 12.1 SSW 23 33 1000.5 - 8.2 - Partly cloudy - - - - -
25/11:30pm 12.0 SSW 23 32 1000.4 - 8.2 - Partly cloudy - - - - -
25/11:05pm 12.0 SW 23 33 1000.5 - 8.2 - Partly cloudy - - - - -
25/11:00pm 11.9 SW 21 28 1000.6 - 8.2 - Partly cloudy - - - - -
25/10:37pm 11.9 SW 21 31 1000.6 - 8.2 - Partly cloudy - - - - -
25/10:30pm 11.7 SW 18 26 1000.9 - 8.2 - Partly cloudy - - - - -
25/10:25pm 11.8 WSW 15 26 1001.0 - 8.2 - Partly cloudy - - - - -
25/10:00pm 12.4 WNW 16 21 1001.1 - 6.0 - Partly cloudy - - - - -
25/09:30pm 12.8 WNW 17 21 1001.0 - 4.6 - Partly cloudy - - - - -
25/09:00pm 12.7 W 27 35 1001.3 - 2.6 Rain Cloudy - - - - -
25/08:50pm 13.3 WNW 21 35 1001.1 - 1.4 - Partly cloudy - - - - -
25/08:30pm 14.3 W 20 25 1001.2 - 0.4 - Partly cloudy - - - - -
25/08:00pm 13.3 WNW 18 27 1001.5 - 0.4 - Partly cloudy - - - - -
25/07:43pm 14.3 WNW 18 30 1001.6 - 0.2 - Partly cloudy - - - - -
25/07:30pm 14.7 WNW 19 24 1001.6 - 0.0 - Partly cloudy - - - - -
25/07:00pm 14.7 WNW 20 27 1002.0 - 0.0 - Partly cloudy - - - - -
25/06:30pm 14.7 WNW 20 27 1002.2 - 0.0 - Partly cloudy - - - - -
25/06:00pm 14.6 WNW 18 24 1002.4 - 0.0 - Mostly cloudy - - - - -
25/05:30pm 14.4 WNW 18 23 1002.6 - 0.0 - Partly cloudy - - - - -
25/05:00pm 14.4 W 16 21 1002.8 - 0.0 - Partly cloudy - - - - -
25/04:30pm 14.8 W 14 21 1003.0 - 0.0 - Partly cloudy - - - - -
25/04:00pm 14.8 W 14 19 1003.2 - 0.0 - Partly cloudy - - - - -
25/03:30pm 14.9 W 12 18 1003.2 - 0.0 - Partly cloudy - - - - -
25/03:00pm 14.9 W 12 21 1003.3 - 0.0 - Mostly clear - - - - -
25/02:30pm 14.7 W 14 22 1003.7 - 0.0 - Partly cloudy - - - - -
25/02:00pm 15.4 W 14 21 1003.9 - 0.0 - Partly cloudy - - - - -
25/01:30pm 15.1 W 12 17 1004.3 - 0.0 - Partly cloudy - - - - -
25/01:00pm 15.3 W 12 20 1004.6 - 0.0 - Partly cloudy - - - - -
25/12:30pm 15.4 W 10 15 1005.0 - 0.0 - Partly cloudy - - - - -
25/12:00pm 15.2 WSW 10 15 1005.4 - 0.0 - Cloudy - - - - -
25/11:30am 14.7 WSW 8 14 1006.0 - 0.0 - Partly cloudy - - - - -
25/11:00am 14.6 SW 12 16 1006.4 - 0.0 - - - - - - -
25/10:30am 14.9 SW 11 15 1006.5 - 0.0 - - - - - - -
25/10:00am 14.4 SW 13 16 1006.7 - 0.0 - - - - - - -
25/09:30am 14.1 SW 15 18 1006.8 - 0.0 - - - - - - -
25/09:00am 14.4 SW 15 19 1006.9 - 2.8 - Mostly cloudy - - - - -
25/08:30am 14.2 SSW 9 12 1007.1 - 2.8 - - - - - - -
25/08:00am 13.8 SSW 10 14 1007.0 - 2.8 - Partly cloudy - - - - -
25/07:30am 13.8 SSW 8 13 1007.1 - 2.8 - Partly cloudy - - - - -
25/07:00am 14.0 SSW 10 14 1007.1 - 2.8 - Partly cloudy - - - - -
25/06:30am 13.8 SW 9 12 1007.1 - 2.8 - Partly cloudy - - - - -
25/06:00am 13.5 SSW 7 9 1007.3 - 2.8 - Cloudy - - - - -
25/05:30am 13.0 S 5 6 1007.3 - 2.8 - Partly cloudy - - - - -
25/05:00am 12.9 S 5 7 1007.5 - 2.8 - Partly cloudy - - - - -
25/04:30am 12.7 SSE 5 6 1007.6 - 2.8 - Cloudy - - - - -
25/04:00am 12.3 SSE 4 6 1007.6 - 2.8 - Partly cloudy - - - - -
25/03:30am 12.5 SSE 5 7 1008.1 - 2.8 - Cloudy - - - - -
25/03:01am 12.8 SSE 5 6 1008.7 - 2.8 - Partly cloudy - - - - -
25/03:00am 12.8 SSE 5 6 1008.7 - 2.8 - Cloudy - - - - -

Other Formats:

Comma delimited format used in spreadsheet applications
http://www.bom.gov.au/fwo/IDT60701/IDT60701.95954.axf

JavaScript Object Notation format (JSON) in row-major order
http://www.bom.gov.au/fwo/IDT60701/IDT60701.95954.json